createdAt,value
2022-10-31T00:01:38.282Z,25.90
2022-10-31T00:04:06.973Z,25.90
2022-10-31T00:06:35.442Z,25.90
2022-10-31T00:09:05.868Z,25.80
2022-10-31T00:11:34.347Z,25.80
2022-10-31T00:14:02.822Z,25.70
2022-10-31T00:16:31.905Z,25.80
2022-10-31T00:19:03.099Z,25.80
2022-10-31T00:21:32.488Z,25.80
2022-10-31T00:24:02.153Z,25.70
2022-10-31T00:26:31.553Z,25.80
2022-10-31T00:29:00.794Z,25.80
2022-10-31T00:31:29.638Z,25.70
2022-10-31T00:33:58.953Z,25.70
2022-10-31T00:36:28.400Z,25.70
2022-10-31T00:38:56.947Z,25.70
2022-10-31T00:41:25.686Z,25.70
2022-10-31T00:43:53.832Z,25.70
2022-10-31T00:46:22.077Z,25.70
2022-10-31T00:48:52.305Z,25.80
2022-10-31T00:51:20.441Z,25.70
2022-10-31T00:53:48.632Z,25.70
2022-10-31T00:56:17.003Z,25.70
2022-10-31T00:58:45.061Z,25.70
2022-10-31T01:01:13.334Z,25.70
2022-10-31T01:03:41.728Z,25.70
2022-10-31T01:06:15.014Z,25.70
2022-10-31T01:08:43.271Z,25.80
2022-10-31T01:11:23.022Z,25.80
2022-10-31T01:13:55.448Z,25.80
2022-10-31T01:16:26.811Z,25.80
2022-10-31T01:18:55.169Z,25.80
2022-10-31T01:21:28.631Z,25.70
2022-10-31T01:24:00.429Z,25.70
2022-10-31T01:26:31.068Z,25.70
2022-10-31T01:29:05.543Z,25.70
2022-10-31T01:31:36.052Z,25.80
2022-10-31T01:34:04.775Z,25.70
2022-10-31T01:36:38.598Z,25.70
2022-10-31T01:39:11.280Z,25.80
2022-10-31T01:41:44.971Z,25.80
2022-10-31T01:44:16.246Z,25.70
2022-10-31T01:46:58.414Z,25.70
2022-10-31T01:49:47.147Z,25.80
2022-10-31T01:52:37.960Z,25.80
2022-10-31T01:55:09.054Z,25.80
2022-10-31T01:57:39.881Z,25.80
2022-10-31T02:00:12.869Z,25.80
2022-10-31T02:02:44.336Z,25.80
2022-10-31T02:05:17.135Z,25.80
2022-10-31T02:08:02.447Z,25.70
2022-10-31T02:10:33.961Z,25.70
2022-10-31T02:13:05.409Z,25.80
2022-10-31T02:15:39.631Z,25.70
2022-10-31T02:18:09.187Z,25.80
2022-10-31T02:21:03.368Z,25.80
2022-10-31T02:23:50.781Z,25.70
2022-10-31T02:26:29.707Z,25.70
2022-10-31T02:29:24.796Z,25.70
2022-10-31T02:32:07.927Z,25.70
2022-10-31T02:35:08.577Z,25.70
2022-10-31T02:37:46.449Z,25.70
2022-10-31T02:40:14.609Z,25.60
2022-10-31T02:43:33.996Z,25.70
2022-10-31T02:46:10.012Z,25.70
2022-10-31T02:48:41.513Z,25.60
2022-10-31T02:51:11.550Z,25.60
2022-10-31T02:53:40.271Z,25.60
2022-10-31T02:56:20.080Z,25.60
2022-10-31T02:59:00.011Z,25.60
2022-10-31T03:01:34.449Z,25.70
2022-10-31T03:04:12.060Z,25.60
2022-10-31T03:07:09.298Z,25.60
2022-10-31T03:10:18.049Z,25.60
2022-10-31T03:13:11.574Z,25.60
2022-10-31T03:15:53.202Z,25.60
2022-10-31T03:18:29.953Z,25.60
2022-10-31T03:21:05.444Z,25.60
2022-10-31T03:23:38.247Z,25.50
2022-10-31T03:26:09.437Z,25.50
2022-10-31T03:28:45.543Z,25.50
2022-10-31T03:31:18.929Z,25.50
2022-10-31T03:33:49.929Z,25.50
2022-10-31T03:36:19.386Z,25.50
2022-10-31T03:38:49.221Z,25.50
2022-10-31T03:41:27.495Z,25.50
2022-10-31T03:44:15.791Z,25.50
2022-10-31T03:46:45.751Z,25.50
2022-10-31T03:49:14.547Z,25.50
2022-10-31T03:51:52.119Z,25.50
2022-10-31T03:54:34.030Z,25.50
2022-10-31T03:57:09.734Z,25.50
2022-10-31T03:59:44.085Z,25.60
2022-10-31T04:02:18.519Z,25.50
2022-10-31T04:04:48.374Z,25.50
2022-10-31T04:07:17.317Z,25.60
2022-10-31T04:09:47.983Z,25.50
2022-10-31T04:12:18.037Z,25.50
2022-10-31T04:15:06.588Z,25.50
2022-10-31T04:17:40.841Z,25.60
2022-10-31T04:20:10.681Z,25.50
2022-10-31T04:22:38.832Z,25.50
2022-10-31T04:25:07.627Z,25.50
2022-10-31T04:27:35.773Z,25.40
2022-10-31T04:30:04.348Z,25.50
2022-10-31T04:32:35.014Z,25.40
2022-10-31T04:35:03.558Z,25.40
2022-10-31T04:37:31.851Z,25.40
2022-10-31T04:40:01.257Z,25.40
2022-10-31T04:42:49.236Z,25.40
2022-10-31T04:45:20.224Z,25.40
2022-10-31T04:47:53.143Z,25.40
2022-10-31T04:50:21.522Z,25.40
2022-10-31T04:52:49.815Z,25.40
2022-10-31T04:55:22.175Z,25.40
2022-10-31T04:58:14.517Z,25.30
2022-10-31T05:00:42.847Z,25.30
2022-10-31T05:03:10.947Z,25.40
2022-10-31T05:05:39.285Z,25.30
2022-10-31T05:08:07.551Z,25.30
2022-10-31T05:10:35.754Z,25.30
2022-10-31T05:13:06.077Z,25.30
2022-10-31T05:16:09.773Z,25.30
2022-10-31T05:18:49.983Z,25.30
2022-10-31T05:21:53.154Z,25.30
2022-10-31T05:24:21.880Z,25.30
2022-10-31T05:26:50.903Z,25.30
2022-10-31T05:29:19.181Z,25.30
2022-10-31T05:31:47.416Z,25.30
2022-10-31T05:34:35.285Z,25.30
2022-10-31T05:37:17.269Z,25.30
2022-10-31T05:39:45.443Z,25.30
2022-10-31T05:42:17.371Z,25.30
2022-10-31T05:44:45.525Z,25.30
2022-10-31T05:47:36.954Z,25.30
2022-10-31T05:50:26.460Z,25.30
2022-10-31T05:53:07.417Z,25.30
2022-10-31T05:55:38.510Z,25.30
2022-10-31T05:58:13.401Z,25.30
2022-10-31T06:00:47.293Z,25.20
2022-10-31T06:03:16.868Z,25.30
2022-10-31T06:09:31.519Z,25.20
2022-10-31T06:11:59.762Z,25.20
2022-10-31T06:14:27.932Z,25.20
2022-10-31T06:16:58.826Z,25.20
2022-10-31T06:19:44.965Z,25.20
2022-10-31T06:22:17.498Z,25.20
2022-10-31T06:24:46.158Z,25.20
2022-10-31T06:27:29.236Z,25.20
2022-10-31T06:29:59.252Z,25.30
2022-10-31T06:32:33.108Z,25.20
2022-10-31T06:35:01.321Z,25.30
2022-10-31T06:37:30.216Z,25.30
2022-10-31T06:40:05.587Z,25.30
2022-10-31T06:42:46.522Z,25.30
2022-10-31T06:45:15.401Z,25.30
2022-10-31T06:48:18.487Z,25.30
2022-10-31T06:51:05.149Z,25.30
2022-10-31T06:53:33.871Z,25.30
2022-10-31T06:56:02.855Z,25.30
2022-10-31T06:58:35.793Z,25.30
2022-10-31T07:01:06.527Z,25.30
2022-10-31T07:03:35.187Z,25.30
2022-10-31T07:06:03.594Z,25.30
2022-10-31T07:08:33.228Z,25.30
2022-10-31T07:11:01.390Z,25.30
2022-10-31T07:13:31.137Z,25.30
2022-10-31T07:16:07.172Z,25.30
2022-10-31T07:18:37.529Z,25.40
2022-10-31T07:21:06.148Z,25.40
2022-10-31T07:23:34.242Z,25.50
2022-10-31T07:26:28.209Z,25.50
2022-10-31T07:28:56.545Z,25.60
2022-10-31T07:31:26.943Z,25.60
2022-10-31T07:33:59.343Z,25.70
2022-10-31T07:36:30.056Z,25.80
2022-10-31T07:39:03.737Z,25.80
2022-10-31T07:41:34.623Z,25.90
2022-10-31T07:44:03.851Z,26.00
2022-10-31T07:46:55.096Z,26.10
2022-10-31T07:49:41.514Z,26.20
2022-10-31T07:52:27.972Z,26.20
2022-10-31T07:57:11.496Z,26.40
2022-10-31T07:59:40.539Z,26.50
2022-10-31T08:02:10.145Z,26.50
2022-10-31T08:05:01.466Z,26.60
2022-10-31T08:08:02.489Z,26.70
2022-10-31T08:10:31.495Z,26.80
2022-10-31T08:13:02.548Z,26.90
2022-10-31T08:15:32.572Z,27.00
2022-10-31T08:18:01.341Z,27.00
2022-10-31T08:20:29.828Z,27.10
2022-10-31T08:23:00.137Z,27.10
2022-10-31T08:25:35.283Z,27.10
2022-10-31T08:28:07.670Z,27.10
2022-10-31T08:30:38.509Z,27.10
2022-10-31T08:33:35.906Z,27.20
2022-10-31T08:36:23.348Z,27.20
2022-10-31T08:39:02.075Z,27.30
2022-10-31T08:41:32.212Z,27.40
2022-10-31T08:44:01.890Z,27.50
2022-10-31T08:46:30.204Z,27.50
2022-10-31T08:48:58.684Z,27.60
2022-10-31T08:51:26.896Z,27.60
2022-10-31T08:53:57.030Z,27.60
2022-10-31T08:56:48.025Z,27.70
2022-10-31T08:59:48.282Z,27.70
2022-10-31T09:02:39.650Z,27.80
2022-10-31T09:05:08.578Z,27.80
2022-10-31T09:07:36.679Z,27.90
2022-10-31T09:10:05.513Z,28.00
2022-10-31T09:12:36.789Z,28.00
2022-10-31T09:15:25.846Z,28.10
2022-10-31T09:18:15.815Z,28.10
2022-10-31T09:20:51.945Z,28.10
2022-10-31T09:23:22.285Z,28.20
2022-10-31T09:25:52.397Z,28.10
2022-10-31T09:28:32.805Z,28.20
2022-10-31T09:31:07.553Z,28.20
2022-10-31T09:34:04.766Z,28.20
2022-10-31T09:36:40.095Z,28.20
2022-10-31T09:39:13.328Z,28.20
2022-10-31T09:41:57.510Z,28.30
2022-10-31T09:44:48.646Z,28.40
2022-10-31T09:47:43.293Z,28.50
2022-10-31T09:50:53.424Z,28.70
2022-10-31T09:54:02.900Z,28.80
2022-10-31T09:56:33.976Z,29.00
2022-10-31T09:59:04.328Z,29.10
2022-10-31T10:01:49.263Z,29.20
2022-10-31T10:04:45.907Z,29.30
2022-10-31T10:07:35.069Z,29.30
2022-10-31T10:10:32.441Z,29.30
2022-10-31T10:13:34.212Z,29.30
2022-10-31T10:16:09.138Z,29.30
2022-10-31T10:19:02.458Z,29.30
2022-10-31T10:21:43.462Z,29.00
2022-10-31T10:24:14.738Z,29.00
2022-10-31T10:26:50.686Z,28.90
2022-10-31T10:29:41.165Z,28.90
2022-10-31T10:32:50.964Z,29.00
2022-10-31T10:35:23.327Z,29.00
2022-10-31T10:37:56.759Z,29.10
2022-10-31T10:40:29.588Z,29.10
2022-10-31T10:43:38.271Z,29.10
2022-10-31T10:46:12.601Z,29.20
2022-10-31T10:48:46.861Z,29.40
2022-10-31T10:54:48.127Z,29.80
2022-10-31T10:57:28.391Z,29.80
2022-10-31T10:59:56.957Z,29.70
2022-10-31T11:02:27.620Z,29.80
2022-10-31T11:04:58.951Z,29.80
2022-10-31T11:07:27.247Z,29.80
2022-10-31T11:10:13.085Z,29.70
2022-10-31T11:12:41.773Z,29.70
2022-10-31T11:15:21.425Z,29.90
2022-10-31T11:17:53.065Z,30.00
2022-10-31T11:20:21.228Z,30.10
2022-10-31T11:22:50.695Z,30.10
2022-10-31T11:25:21.808Z,30.10
2022-10-31T11:28:01.743Z,30.00
2022-10-31T11:30:31.176Z,29.80
2022-10-31T11:33:03.191Z,29.70
2022-10-31T11:35:31.873Z,29.60
2022-10-31T11:38:01.899Z,29.50
2022-10-31T11:40:30.400Z,29.50
2022-10-31T11:43:00.152Z,29.50
2022-10-31T11:45:34.388Z,29.50
2022-10-31T11:48:04.256Z,29.60
2022-10-31T11:50:43.910Z,29.80
2022-10-31T11:53:27.385Z,30.00
2022-10-31T11:56:16.029Z,29.90
2022-10-31T11:58:44.747Z,29.90
2022-10-31T12:01:44.176Z,30.00
2022-10-31T12:04:14.679Z,29.80
2022-10-31T12:06:45.129Z,29.70
2022-10-31T12:09:19.748Z,29.60
2022-10-31T12:12:13.853Z,29.50
2022-10-31T12:15:17.176Z,29.40
2022-10-31T12:18:26.969Z,29.20
2022-10-31T12:21:10.316Z,28.90
2022-10-31T12:23:56.577Z,28.60
2022-10-31T12:26:47.695Z,28.40
2022-10-31T12:29:44.643Z,28.40
2022-10-31T12:32:43.299Z,28.60
2022-10-31T12:38:15.129Z,29.10
2022-10-31T12:41:15.462Z,29.20
2022-10-31T12:44:08.226Z,29.20
2022-10-31T12:47:02.762Z,29.10
2022-10-31T12:49:52.116Z,29.00
2022-10-31T12:52:35.398Z,29.00
2022-10-31T12:55:28.207Z,29.00
2022-10-31T12:58:03.402Z,29.10
2022-10-31T13:00:37.691Z,29.20
2022-10-31T13:03:40.937Z,29.30
2022-10-31T13:06:15.440Z,29.40
2022-10-31T13:08:58.548Z,29.60
2022-10-31T13:11:35.733Z,29.70
2022-10-31T13:14:25.074Z,29.80
2022-10-31T13:16:55.343Z,29.90
2022-10-31T13:19:29.566Z,30.10
2022-10-31T13:22:01.984Z,30.40
2022-10-31T13:24:59.339Z,30.50
2022-10-31T13:27:32.725Z,30.30
2022-10-31T13:30:26.973Z,30.20
2022-10-31T13:33:40.009Z,30.20
2022-10-31T13:36:27.709Z,30.10
2022-10-31T13:39:01.947Z,30.10
2022-10-31T13:41:47.164Z,30.00
2022-10-31T13:44:25.776Z,30.00
2022-10-31T13:46:56.383Z,30.00
2022-10-31T13:49:30.518Z,30.00
2022-10-31T13:52:15.816Z,30.20
2022-10-31T13:54:48.766Z,30.20
2022-10-31T13:57:33.992Z,30.20
2022-10-31T14:00:26.007Z,30.30
2022-10-31T14:02:58.221Z,30.50
2022-10-31T14:05:31.626Z,30.60
2022-10-31T14:08:06.324Z,30.80
2022-10-31T14:10:49.950Z,30.90
2022-10-31T14:13:36.781Z,31.20
2022-10-31T14:16:08.343Z,31.20
2022-10-31T14:18:44.670Z,31.00
2022-10-31T14:21:30.438Z,31.00
2022-10-31T14:23:59.532Z,31.10
2022-10-31T14:26:27.616Z,31.10
2022-10-31T14:29:28.074Z,31.20
2022-10-31T14:32:07.643Z,31.30
2022-10-31T14:34:51.927Z,31.30
2022-10-31T14:37:41.579Z,31.30
2022-10-31T14:40:28.266Z,31.50
2022-10-31T14:43:11.694Z,31.50
2022-10-31T14:45:49.066Z,31.60
2022-10-31T14:48:41.690Z,31.70
2022-10-31T14:51:22.214Z,32.00
2022-10-31T14:53:57.941Z,32.10
2022-10-31T14:56:32.006Z,32.00
2022-10-31T14:59:09.727Z,31.70
2022-10-31T15:01:40.357Z,31.70
2022-10-31T15:04:30.461Z,31.60
2022-10-31T15:07:14.514Z,31.70
2022-10-31T15:09:43.045Z,31.70
2022-10-31T15:12:37.570Z,31.70
2022-10-31T15:15:27.972Z,31.60
2022-10-31T15:17:59.563Z,31.70
2022-10-31T15:20:28.972Z,31.90
2022-10-31T15:22:59.389Z,31.80
2022-10-31T15:25:33.940Z,31.60
2022-10-31T15:28:02.727Z,31.40
2022-10-31T15:30:31.625Z,31.10
2022-10-31T15:32:59.798Z,31.10
2022-10-31T15:35:32.431Z,30.90
2022-10-31T15:38:01.022Z,30.70
2022-10-31T15:40:29.523Z,30.50
2022-10-31T15:43:00.222Z,30.20
2022-10-31T15:45:29.882Z,30.20
2022-10-31T15:48:20.544Z,30.10
2022-10-31T15:50:56.303Z,30.00
2022-10-31T15:53:28.381Z,30.00
2022-10-31T15:56:06.092Z,29.90
2022-10-31T16:03:35.292Z,29.70
2022-10-31T16:06:06.212Z,29.60
2022-10-31T16:09:58.654Z,29.50
2022-10-31T16:12:39.253Z,29.40
2022-10-31T16:15:15.391Z,29.30
2022-10-31T16:17:52.456Z,29.30
2022-10-31T16:20:24.599Z,29.20
2022-10-31T16:22:54.335Z,29.10
2022-10-31T16:25:36.083Z,29.10
2022-10-31T16:28:15.893Z,29.10
2022-10-31T16:30:49.046Z,29.00
2022-10-31T16:33:32.465Z,28.90
2022-10-31T16:36:15.756Z,28.90
2022-10-31T16:38:44.387Z,28.90
2022-10-31T16:41:12.435Z,28.80
2022-10-31T16:43:40.578Z,28.70
2022-10-31T16:46:16.833Z,28.60
2022-10-31T16:48:44.982Z,28.60
2022-10-31T16:51:13.233Z,28.60
2022-10-31T16:53:46.401Z,28.60
2022-10-31T16:56:25.372Z,28.60
2022-10-31T16:58:53.701Z,28.50
2022-10-31T17:01:21.887Z,28.40
2022-10-31T17:03:50.110Z,28.50
2022-10-31T17:06:18.285Z,28.50
2022-10-31T17:08:46.634Z,28.50
2022-10-31T17:11:22.213Z,28.50
2022-10-31T17:13:50.441Z,28.50
2022-10-31T17:16:18.599Z,28.50
2022-10-31T17:18:46.902Z,28.50
2022-10-31T17:21:22.779Z,28.50
2022-10-31T17:23:51.850Z,28.50
2022-10-31T17:26:20.312Z,28.50
2022-10-31T17:28:48.584Z,28.40
2022-10-31T17:31:29.036Z,28.50
2022-10-31T17:34:02.292Z,28.50
2022-10-31T17:36:33.001Z,28.40
2022-10-31T17:39:01.416Z,28.40
2022-10-31T17:41:29.738Z,28.40
2022-10-31T17:43:58.599Z,28.40
2022-10-31T17:46:27.330Z,28.40
2022-10-31T17:48:55.831Z,28.30
2022-10-31T17:51:24.189Z,28.20
2022-10-31T17:53:52.205Z,28.20
2022-10-31T17:56:20.360Z,28.20
2022-10-31T17:58:48.586Z,28.20
2022-10-31T18:01:18.563Z,28.10
2022-10-31T18:03:46.957Z,28.10
2022-10-31T18:06:15.089Z,28.10
2022-10-31T18:08:43.975Z,28.10
2022-10-31T18:11:16.756Z,28.00
2022-10-31T18:13:45.083Z,28.00
2022-10-31T18:16:15.835Z,27.90
2022-10-31T18:18:44.134Z,27.90
2022-10-31T18:21:12.292Z,27.90
2022-10-31T18:23:43.262Z,27.90
2022-10-31T18:26:11.641Z,27.80
2022-10-31T18:28:40.173Z,27.80
2022-10-31T18:31:08.204Z,27.80
2022-10-31T18:33:36.476Z,27.80
2022-10-31T18:36:08.064Z,27.70
2022-10-31T18:38:44.237Z,27.70
2022-10-31T18:41:13.514Z,27.70
2022-10-31T18:43:42.418Z,27.70
2022-10-31T18:46:14.072Z,27.70
2022-10-31T18:48:44.237Z,27.70
2022-10-31T18:51:14.356Z,27.60
2022-10-31T18:53:42.559Z,27.60
2022-10-31T18:56:11.773Z,27.60
2022-10-31T18:58:40.056Z,27.60
2022-10-31T19:01:10.299Z,27.60
2022-10-31T19:03:39.968Z,27.50
2022-10-31T19:06:09.769Z,27.50
2022-10-31T19:08:39.843Z,27.50
2022-10-31T19:11:13.484Z,27.50
2022-10-31T19:13:42.822Z,27.50
2022-10-31T19:16:14.103Z,27.40
2022-10-31T19:18:43.682Z,27.40
2022-10-31T19:21:14.623Z,27.50
2022-10-31T19:23:43.089Z,27.50
2022-10-31T19:26:11.497Z,27.40
2022-10-31T19:28:41.137Z,27.20
2022-10-31T19:31:10.215Z,27.00
2022-10-31T19:33:38.837Z,26.80
2022-10-31T19:36:10.201Z,26.50
2022-10-31T19:38:40.246Z,26.30
2022-10-31T19:41:30.050Z,26.20
2022-10-31T19:44:00.666Z,26.00
2022-10-31T19:49:17.964Z,25.80
2022-10-31T19:51:46.113Z,25.70
2022-10-31T19:54:14.368Z,25.70
2022-10-31T19:56:42.658Z,25.60
2022-10-31T19:59:10.967Z,25.60
2022-10-31T20:01:39.319Z,25.50
2022-10-31T20:04:07.725Z,25.40
2022-10-31T20:06:41.162Z,25.30
2022-10-31T20:09:12.664Z,25.30
2022-10-31T20:11:42.428Z,25.50
2022-10-31T20:14:13.791Z,25.30
2022-10-31T20:16:42.534Z,25.40
2022-10-31T20:19:10.998Z,25.50
2022-10-31T20:21:41.013Z,25.50
2022-10-31T20:24:10.875Z,25.60
2022-10-31T20:26:41.155Z,25.60
2022-10-31T20:29:14.924Z,25.70
2022-10-31T20:31:44.445Z,25.60
2022-10-31T20:34:13.340Z,25.60
2022-10-31T20:36:41.694Z,25.70
2022-10-31T20:39:10.542Z,25.60
2022-10-31T20:41:39.027Z,25.60
2022-10-31T20:44:07.315Z,25.50
2022-10-31T20:46:35.681Z,25.50
2022-10-31T20:49:03.921Z,25.50
2022-10-31T20:51:32.421Z,25.50
2022-10-31T20:54:01.036Z,25.50
2022-10-31T20:56:29.933Z,25.60
2022-10-31T20:58:58.644Z,25.70
2022-10-31T21:01:30.409Z,25.70
2022-10-31T21:03:59.387Z,25.80
2022-10-31T21:06:28.494Z,25.70
2022-10-31T21:08:58.035Z,25.70
2022-10-31T21:11:28.455Z,25.80
2022-10-31T21:13:57.075Z,25.80
2022-10-31T21:16:31.161Z,25.80
2022-10-31T21:19:01.278Z,25.70
2022-10-31T21:21:35.841Z,25.70
2022-10-31T21:24:07.776Z,25.70
2022-10-31T21:26:39.159Z,25.80
2022-10-31T21:29:08.738Z,25.80
2022-10-31T21:31:38.826Z,25.90
2022-10-31T21:34:08.329Z,25.90
2022-10-31T21:36:37.219Z,25.90
2022-10-31T21:39:07.172Z,25.90
2022-10-31T21:41:35.777Z,25.90
2022-10-31T21:44:04.047Z,25.90
2022-10-31T21:46:33.837Z,25.90
2022-10-31T21:49:04.173Z,25.90
2022-10-31T21:51:36.774Z,25.90
2022-10-31T21:54:05.404Z,25.90
2022-10-31T21:56:34.033Z,25.90
2022-10-31T21:59:02.613Z,25.90
2022-10-31T22:01:31.288Z,25.90
2022-10-31T22:04:00.686Z,25.90
2022-10-31T22:06:29.361Z,25.90
2022-10-31T22:09:00.019Z,25.90
2022-10-31T22:11:28.693Z,25.90
2022-10-31T22:13:59.372Z,25.90
2022-10-31T22:16:28.905Z,25.90
2022-10-31T22:18:59.242Z,25.90
2022-10-31T22:21:29.363Z,25.90
2022-10-31T22:24:01.995Z,25.90
2022-10-31T22:26:34.151Z,25.90
2022-10-31T22:29:04.869Z,25.90
2022-10-31T22:31:34.672Z,25.80
2022-10-31T22:34:02.952Z,25.90
2022-10-31T22:36:31.889Z,25.90
2022-10-31T22:39:00.767Z,25.90
2022-10-31T22:41:30.696Z,25.80
2022-10-31T22:43:59.161Z,25.80
2022-10-31T22:46:32.705Z,25.80
2022-10-31T22:49:03.457Z,25.70
2022-10-31T22:51:37.712Z,25.70
2022-10-31T22:54:08.350Z,25.70
2022-10-31T22:56:36.709Z,25.70
2022-10-31T22:59:05.104Z,25.70
2022-10-31T23:01:34.599Z,25.70
2022-10-31T23:04:03.098Z,25.70
2022-10-31T23:06:33.075Z,25.70
2022-10-31T23:09:03.957Z,25.70
2022-10-31T23:11:34.737Z,25.70
2022-10-31T23:14:04.925Z,25.60
2022-10-31T23:16:33.802Z,25.60
2022-10-31T23:19:02.192Z,25.60
2022-10-31T23:21:30.457Z,25.60
2022-10-31T23:23:59.258Z,25.60
2022-10-31T23:26:27.384Z,25.50
2022-10-31T23:28:55.520Z,25.50
2022-10-31T23:31:23.673Z,25.50
2022-10-31T23:33:51.816Z,25.50
2022-10-31T23:36:20.068Z,25.50
2022-10-31T23:38:48.247Z,25.40
2022-10-31T23:41:16.414Z,25.40
2022-10-31T23:43:44.889Z,25.40
2022-10-31T23:46:13.051Z,25.40
2022-10-31T23:48:41.283Z,25.40
2022-10-31T23:51:09.420Z,25.40
2022-10-31T23:53:37.463Z,25.40
2022-10-31T23:56:05.998Z,25.40
2022-10-31T23:58:34.063Z,25.40
